createdAt,value
2023-03-22T00:02:13.518Z,3.50
2023-03-22T00:04:42.650Z,2.15
2023-03-22T00:07:09.527Z,2.85
2023-03-22T00:09:36.608Z,2.80
2023-03-22T00:12:04.276Z,2.45
2023-03-22T00:14:31.221Z,2.67
2023-03-22T00:16:58.022Z,2.55
2023-03-22T00:19:24.807Z,2.20
2023-03-22T00:21:51.590Z,2.55
2023-03-22T00:24:18.410Z,3.03
2023-03-22T00:26:47.406Z,2.78
2023-03-22T00:29:14.305Z,3.35
2023-03-22T00:31:41.375Z,2.67
2023-03-22T00:34:08.337Z,3.53
2023-03-22T00:36:37.852Z,4.97
2023-03-22T00:39:04.730Z,2.67
2023-03-22T00:41:31.582Z,1.95
2023-03-22T00:43:58.556Z,3.40
2023-03-22T00:46:25.931Z,3.35
2023-03-22T00:48:52.846Z,2.58
2023-03-22T00:51:19.767Z,2.38
2023-03-22T00:53:49.953Z,4.45
2023-03-22T00:56:16.907Z,2.88
2023-03-22T00:58:44.132Z,3.30
2023-03-22T01:01:14.861Z,2.42
2023-03-22T01:03:43.098Z,3.35
2023-03-22T01:06:10.958Z,3.88
2023-03-22T01:08:38.759Z,3.15
2023-03-22T01:11:07.501Z,3.95
2023-03-22T01:13:37.577Z,3.53
2023-03-22T01:16:08.605Z,4.00
2023-03-22T01:18:36.141Z,3.33
2023-03-22T01:21:03.572Z,1.92
2023-03-22T01:23:30.717Z,1.95
2023-03-22T01:25:57.513Z,3.10
2023-03-22T01:28:26.971Z,2.17
2023-03-22T01:30:55.266Z,2.63
2023-03-22T01:33:22.659Z,2.80
2023-03-22T01:35:49.432Z,2.75
2023-03-22T01:38:16.272Z,2.40
2023-03-22T01:40:43.203Z,2.97
2023-03-22T01:43:15.751Z,3.05
2023-03-22T01:45:46.748Z,2.53
2023-03-22T01:48:34.243Z,2.72
2023-03-22T01:51:07.165Z,3.78
2023-03-22T01:53:41.723Z,4.25
2023-03-22T01:56:09.471Z,2.38
2023-03-22T01:58:38.020Z,2.60
2023-03-22T02:01:07.406Z,2.95
2023-03-22T02:03:53.469Z,2.65
2023-03-22T02:06:21.152Z,3.55
2023-03-22T02:08:49.853Z,4.15
2023-03-22T02:11:21.437Z,3.00
2023-03-22T02:14:27.359Z,3.53
2023-03-22T02:17:35.634Z,3.22
2023-03-22T02:20:20.926Z,2.40
2023-03-22T02:23:00.019Z,2.08
2023-03-22T02:25:42.896Z,2.40
2023-03-22T02:28:12.465Z,3.00
2023-03-22T02:31:07.730Z,2.45
2023-03-22T02:34:19.571Z,3.28
2023-03-22T02:37:36.958Z,5.32
2023-03-22T02:40:19.869Z,3.10
2023-03-22T02:43:09.649Z,1.95
2023-03-22T02:45:52.757Z,4.53
2023-03-22T02:48:38.028Z,3.30
2023-03-22T02:51:18.934Z,2.95
2023-03-22T02:53:52.503Z,2.45
2023-03-22T02:56:25.535Z,3.15
2023-03-22T02:58:55.653Z,2.22
2023-03-22T03:01:27.984Z,3.50
2023-03-22T03:04:00.044Z,2.80
2023-03-22T03:06:31.052Z,2.55
2023-03-22T03:09:02.736Z,2.22
2023-03-22T03:11:30.426Z,4.43
2023-03-22T03:13:58.452Z,3.25
2023-03-22T03:16:29.402Z,2.33
2023-03-22T03:19:03.155Z,2.80
2023-03-22T03:21:34.714Z,3.10
2023-03-22T03:24:10.171Z,1.95
2023-03-22T03:26:48.650Z,3.35
2023-03-22T03:29:43.829Z,3.38
2023-03-22T03:32:18.537Z,3.53
2023-03-22T03:34:52.712Z,2.05
2023-03-22T03:37:30.909Z,3.35
2023-03-22T03:40:09.857Z,2.53
2023-03-22T03:42:44.720Z,4.57
2023-03-22T03:45:13.193Z,3.45
2023-03-22T03:47:40.578Z,2.35
2023-03-22T03:50:08.361Z,2.38
2023-03-22T03:52:35.665Z,3.00
2023-03-22T03:55:02.620Z,4.85
2023-03-22T03:57:29.561Z,3.55
2023-03-22T03:59:56.531Z,3.67
2023-03-22T04:02:23.505Z,2.40
2023-03-22T04:04:50.311Z,2.65
2023-03-22T04:07:17.108Z,3.15
2023-03-22T04:09:43.949Z,2.40
2023-03-22T04:12:10.821Z,1.65
2023-03-22T04:14:37.736Z,4.60
2023-03-22T04:17:04.689Z,3.28
2023-03-22T04:19:31.445Z,3.90
2023-03-22T04:21:58.390Z,2.97
2023-03-22T04:24:25.173Z,1.58
2023-03-22T04:26:52.665Z,4.22
2023-03-22T04:29:19.708Z,5.25
2023-03-22T04:31:46.512Z,2.50
2023-03-22T04:34:13.245Z,2.42
2023-03-22T04:36:40.161Z,1.55
2023-03-22T04:39:10.607Z,2.15
2023-03-22T04:41:37.776Z,1.83
2023-03-22T04:44:06.050Z,3.00
2023-03-22T04:46:36.030Z,2.95
2023-03-22T04:49:03.548Z,1.77
2023-03-22T04:51:32.036Z,1.63
2023-03-22T04:54:00.085Z,2.20
2023-03-22T04:56:27.047Z,2.47
2023-03-22T04:58:54.010Z,2.75
2023-03-22T05:01:20.910Z,1.83
2023-03-22T05:03:47.908Z,1.92
2023-03-22T05:06:15.271Z,1.40
2023-03-22T05:08:42.584Z,1.45
2023-03-22T05:11:19.339Z,2.97
2023-03-22T05:13:46.251Z,2.33
2023-03-22T05:16:13.063Z,2.25
2023-03-22T05:18:45.592Z,4.15
2023-03-22T05:21:15.523Z,3.58
2023-03-22T05:23:43.776Z,2.53
2023-03-22T05:26:16.030Z,2.45
2023-03-22T05:28:44.285Z,3.10
2023-03-22T05:31:14.658Z,5.80
2023-03-22T05:33:41.849Z,3.30
2023-03-22T05:36:11.224Z,3.95
2023-03-22T05:38:38.410Z,5.57
2023-03-22T05:41:05.744Z,6.55
2023-03-22T05:43:32.797Z,6.43
2023-03-22T05:45:59.617Z,6.22
2023-03-22T05:48:26.402Z,9.13
2023-03-22T05:50:53.198Z,7.10
2023-03-22T05:53:19.984Z,8.95
2023-03-22T05:55:46.781Z,6.57
2023-03-22T05:58:18.910Z,7.38
2023-03-22T06:00:49.869Z,7.00
2023-03-22T06:03:17.123Z,7.45
2023-03-22T06:05:43.943Z,8.60
2023-03-22T06:08:11.302Z,8.90
2023-03-22T06:10:38.645Z,8.05
2023-03-22T06:13:05.892Z,5.97
2023-03-22T06:15:32.684Z,9.20
2023-03-22T06:18:00.679Z,10.20
2023-03-22T06:20:27.648Z,11.57
2023-03-22T06:22:54.524Z,13.98
2023-03-22T06:25:21.329Z,19.90
2023-03-22T06:27:49.113Z,28.25
2023-03-22T06:30:16.028Z,32.25
2023-03-22T06:32:42.849Z,34.97
2023-03-22T06:35:09.856Z,35.60
2023-03-22T06:37:36.820Z,26.40
2023-03-22T06:40:04.886Z,23.17
2023-03-22T06:42:31.965Z,23.05
2023-03-22T06:44:58.759Z,19.63
2023-03-22T06:47:26.427Z,18.25
2023-03-22T06:49:53.778Z,16.42
2023-03-22T06:52:20.610Z,15.82
2023-03-22T06:54:47.860Z,15.27
2023-03-22T06:57:14.761Z,13.00
2023-03-22T06:59:41.650Z,11.88
2023-03-22T07:02:13.949Z,13.80
2023-03-22T07:04:40.889Z,13.75
2023-03-22T07:07:07.782Z,11.70
2023-03-22T07:09:34.873Z,13.07
2023-03-22T07:12:01.734Z,13.13
2023-03-22T07:14:28.985Z,10.52
2023-03-22T07:16:56.723Z,12.18
2023-03-22T07:19:24.438Z,11.63
2023-03-22T07:21:51.246Z,10.40
2023-03-22T07:24:18.099Z,10.82
2023-03-22T07:26:45.360Z,8.95
2023-03-22T07:29:12.515Z,9.55
2023-03-22T07:31:40.077Z,8.82
2023-03-22T07:34:07.486Z,10.60
2023-03-22T07:36:34.311Z,8.73
2023-03-22T07:39:01.611Z,10.30
2023-03-22T07:41:30.234Z,10.57
2023-03-22T07:44:07.897Z,10.05
2023-03-22T07:46:43.930Z,9.50
2023-03-22T07:49:11.327Z,10.02
2023-03-22T07:51:38.837Z,10.45
2023-03-22T07:54:07.691Z,12.40
2023-03-22T07:56:35.824Z,10.23
2023-03-22T07:59:03.467Z,11.82
2023-03-22T08:01:32.222Z,9.65
2023-03-22T08:03:59.177Z,7.53
2023-03-22T08:06:26.355Z,6.13
2023-03-22T08:08:53.288Z,9.07
2023-03-22T08:11:20.251Z,7.72
2023-03-22T08:13:47.346Z,5.25
2023-03-22T08:16:14.302Z,5.43
2023-03-22T08:18:43.037Z,4.80
2023-03-22T08:21:11.138Z,5.32
2023-03-22T08:23:42.058Z,5.05
2023-03-22T08:26:11.081Z,3.88
2023-03-22T08:28:38.181Z,4.80
2023-03-22T08:31:15.137Z,4.13
2023-03-22T08:33:43.097Z,4.63
2023-03-22T08:36:13.231Z,3.95
2023-03-22T08:38:40.122Z,4.20
2023-03-22T08:41:07.171Z,4.30
2023-03-22T08:43:34.634Z,4.65
2023-03-22T08:46:01.532Z,3.42
2023-03-22T08:48:30.779Z,7.05
2023-03-22T08:50:58.783Z,3.97
2023-03-22T08:53:28.778Z,5.07
2023-03-22T08:55:58.110Z,3.85
2023-03-22T08:58:25.111Z,4.85
2023-03-22T09:00:52.246Z,4.50
2023-03-22T09:03:19.201Z,2.90
2023-03-22T09:05:46.833Z,3.83
2023-03-22T09:08:19.276Z,3.67
2023-03-22T09:10:52.017Z,3.67
2023-03-22T09:13:20.610Z,3.60
2023-03-22T09:15:48.794Z,4.03
2023-03-22T09:18:16.330Z,3.67
2023-03-22T09:20:45.804Z,4.20
2023-03-22T09:23:13.501Z,4.78
2023-03-22T09:25:46.849Z,3.50
2023-03-22T09:28:15.360Z,2.63
2023-03-22T09:30:42.490Z,4.43
2023-03-22T09:33:09.523Z,3.03
2023-03-22T09:35:41.964Z,5.45
2023-03-22T09:38:10.180Z,3.20
2023-03-22T09:40:43.379Z,3.17
2023-03-22T09:43:15.464Z,3.35
2023-03-22T09:45:46.301Z,3.75
2023-03-22T09:48:31.037Z,2.72
2023-03-22T09:51:01.145Z,2.15
2023-03-22T09:53:30.475Z,2.45
2023-03-22T09:56:07.098Z,2.25
2023-03-22T09:58:47.167Z,2.13
2023-03-22T10:01:14.157Z,4.20
2023-03-22T10:03:56.187Z,2.25
2023-03-22T10:06:29.316Z,2.17
2023-03-22T10:09:09.096Z,3.00
2023-03-22T10:11:46.117Z,3.08
2023-03-22T10:14:39.012Z,2.58
2023-03-22T10:17:14.458Z,1.98
2023-03-22T10:20:16.674Z,3.33
2023-03-22T10:22:46.527Z,2.03
2023-03-22T10:25:21.495Z,1.60
2023-03-22T10:27:50.619Z,1.55
2023-03-22T10:30:23.410Z,2.13
2023-03-22T10:32:58.372Z,1.98
2023-03-22T10:35:26.730Z,1.67
2023-03-22T10:37:57.364Z,2.95
2023-03-22T10:40:30.559Z,2.10
2023-03-22T10:43:03.575Z,2.53
2023-03-22T10:45:33.639Z,1.83
2023-03-22T10:48:14.354Z,2.35
2023-03-22T10:50:44.458Z,2.35
2023-03-22T10:53:17.372Z,3.25
2023-03-22T10:55:44.824Z,2.40
2023-03-22T10:58:14.492Z,2.83
2023-03-22T11:00:49.680Z,3.20
2023-03-22T11:03:37.282Z,2.42
2023-03-22T11:06:12.156Z,2.70
2023-03-22T11:09:13.224Z,3.13
2023-03-22T11:12:00.632Z,2.67
2023-03-22T11:14:27.433Z,3.08
2023-03-22T11:17:06.217Z,1.90
2023-03-22T11:19:35.816Z,1.67
2023-03-22T11:22:06.987Z,2.67
2023-03-22T11:24:34.805Z,2.65
2023-03-22T11:27:19.556Z,2.33
2023-03-22T11:29:50.723Z,2.13
2023-03-22T11:32:39.572Z,2.55
2023-03-22T11:35:33.028Z,2.33
2023-03-22T11:38:02.343Z,2.42
2023-03-22T11:40:35.149Z,1.38
2023-03-22T11:43:21.057Z,1.90
2023-03-22T11:45:55.675Z,2.75
2023-03-22T11:48:33.363Z,2.00
2023-03-22T11:51:13.522Z,3.65
2023-03-22T11:53:48.788Z,2.53
2023-03-22T11:56:21.685Z,2.65
2023-03-22T11:59:01.176Z,1.58
2023-03-22T12:01:49.335Z,2.72
2023-03-22T12:04:20.232Z,1.92
2023-03-22T12:06:48.167Z,2.20
2023-03-22T12:09:41.329Z,1.42
2023-03-22T12:12:23.030Z,1.83
2023-03-22T12:15:01.272Z,2.42
2023-03-22T12:18:07.825Z,1.80
2023-03-22T12:21:13.813Z,1.17
2023-03-22T12:23:41.454Z,1.30
2023-03-22T12:26:17.228Z,1.45
2023-03-22T12:28:55.615Z,2.45
2023-03-22T12:31:31.527Z,1.58
2023-03-22T12:34:02.963Z,1.85
2023-03-22T12:36:49.403Z,1.27
2023-03-22T12:39:30.021Z,1.67
2023-03-22T12:42:02.924Z,1.67
2023-03-22T12:44:37.572Z,1.40
2023-03-22T12:47:12.575Z,2.22
2023-03-22T12:50:17.252Z,1.37
2023-03-22T12:52:48.588Z,1.33
2023-03-22T12:55:36.636Z,2.45
2023-03-22T12:58:07.284Z,1.50
2023-03-22T13:01:22.114Z,1.30
2023-03-22T13:03:53.590Z,1.30
2023-03-22T13:06:44.020Z,1.52
2023-03-22T13:09:16.816Z,1.25
2023-03-22T13:11:47.002Z,2.03
2023-03-22T13:14:51.303Z,3.25
2023-03-22T13:17:24.305Z,1.10
2023-03-22T13:20:07.804Z,1.38
2023-03-22T13:22:37.602Z,1.95
2023-03-22T13:25:12.496Z,1.50
2023-03-22T13:27:57.211Z,1.55
2023-03-22T13:30:47.055Z,2.47
2023-03-22T13:33:27.338Z,1.80
2023-03-22T13:35:57.251Z,2.05
2023-03-22T13:38:28.612Z,1.65
2023-03-22T13:41:20.758Z,1.92
2023-03-22T13:43:50.466Z,1.30
2023-03-22T13:46:20.673Z,4.32
2023-03-22T13:48:48.078Z,2.47
2023-03-22T13:51:26.404Z,2.38
2023-03-22T13:54:09.890Z,2.85
2023-03-22T13:56:56.155Z,1.80
2023-03-22T13:59:32.348Z,4.30
2023-03-22T14:05:03.969Z,3.15
2023-03-22T14:07:53.929Z,2.55
2023-03-22T14:10:41.773Z,2.25
2023-03-22T14:13:35.683Z,2.50
2023-03-22T14:16:11.827Z,6.25
2023-03-22T14:18:43.353Z,2.22
2023-03-22T14:21:37.632Z,2.28
